EST,Max TemperatureF,Mean TemperatureF,Min TemperatureF,Max Dew PointF,MeanDew PointF,Min DewpointF,Max Humidity, Mean Humidity, Min Humidity, Max Sea Level PressureIn, Mean Sea Level PressureIn, Min Sea Level PressureIn, Max VisibilityMiles, Mean VisibilityMiles, Min VisibilityMiles, Max Wind SpeedMPH, Mean Wind SpeedMPH, Max Gust SpeedMPH,PrecipitationIn, CloudCover, Events, WindDirDegrees
2011-12-1,42,34,26,34,30,27,100,88,57,30.31,30.25,30.16,10,8,4,12,5,,0.00,0,,229
2011-12-2,41,36,32,36,32,28,100,87,61,30.50,30.37,30.22,10,9,2,12,5,18,0.00,6,Snow,270
2011-12-3,48,38,28,39,36,28,100,85,66,30.49,30.36,30.20,10,9,5,12,5,16,0.00,5,,163
2011-12-4,51,48,44,50,43,32,100,83,50,30.12,30.07,30.03,10,9,5,18,13,28,0.00,7,Rain,199
2011-12-5,46,40,33,46,40,34,100,100,100,30.23,30.19,30.15,10,6,2,17,6,21,0.00,8,Rain-Snow,357
2011-12-6,35,34,32,36,34,32,100,100,100,30.20,30.15,30.07,10,10,4,9,7,,0.00,8,Snow,343
2011-12-7,35,32,28,34,28,23,100,84,65,30.08,29.97,29.90,10,10,5,13,6,16,0.00,5,Snow,281
2011-12-8,37,32,26,28,27,23,100,83,70,30.20,30.14,30.00,10,8,5,18,8,23,0.00,4,,235
2011-12-9,33,30,28,34,29,21,100,91,69,30.28,30.18,30.15,10,7,2,14,7,16,0.00,7,Snow,253
2011-12-10,28,22,17,18,16,12,93,74,51,30.48,30.42,30.34,10,10,10,15,6,20,0.00,0,,247
2011-12-11,37,28,19,21,17,12,80,65,48,30.53,30.47,30.43,10,10,10,12,7,17,0.00,0,,204
2011-12-12,42,32,21,27,22,19,100,69,42,30.46,30.42,30.39,10,10,10,8,3,,0.00,0,,208
2011-12-13,42,33,24,37,30,25,100,91,61,30.45,30.40,30.34,10,7,5,5,1,,0.00,6,Rain,183
2011-12-14,55,45,35,55,43,36,100,100,100,30.32,30.13,29.86,7,3,1,20,5,26,0.00,8,Rain,177
2011-12-15,57,47,37,57,48,27,100,87,62,29.99,29.74,29.64,10,8,2,28,19,37,0.00,8,Rain,239
2011-12-16,37,34,30,27,23,19,75,64,52,30.31,30.23,30.06,10,10,10,21,12,32,0.00,6,,291
2011-12-17,32,30,28,30,25,19,100,84,64,30.28,30.25,30.19,10,6,1,9,4,,0.00,8,Snow,307
2011-12-18,37,34,30,32,31,28,100,88,70,30.22,30.14,30.02,10,7,5,15,8,,0.00,5,,227
2011-12-19,51,45,39,43,38,32,82,74,67,30.01,29.92,29.88,10,10,10,20,15,29,0.00,6,,239
2011-12-20,39,36,33,39,31,25,100,82,65,30.18,30.07,29.85,10,9,2,16,6,22,0.00,8,Rain-Snow,79
2011-12-21,50,44,39,50,44,39,100,100,100,29.92,29.72,29.56,10,5,0,18,5,25,0.00,8,Fog-Rain,263
2011-12-22,44,42,39,45,40,34,100,92,70,30.09,30.02,29.91,10,8,5,12,6,,0.00,7,Rain,259
2011-12-23,37,32,26,37,21,12,100,70,47,30.33,30.24,30.08,10,9,3,15,8,23,0.00,5,Rain-Snow,338
2011-12-24,37,30,24,32,26,23,100,82,60,30.37,30.29,30.18,10,10,7,13,4,9,0.00,3,Snow,193
2011-12-25,44,38,33,30,29,27,87,72,53,30.16,30.03,29.92,10,10,10,24,15,31,0.00,3,,248
2011-12-26,44,38,33,30,29,27,81,69,49,30.31,30.20,30.03,10,10,10,17,6,24,0.00,3,,220
2011-12-27,37,35,33,36,33,28,100,93,75,29.94,29.63,29.40,10,6,1,18,6,30,0.00,7,Rain-Snow,236
2011-12-28,32,28,24,27,18,10,93,68,47,30.01,29.93,29.70,10,10,10,26,14,34,0.00,3,,303
2011-12-29,42,34,26,39,32,19,100,90,74,29.95,29.74,29.58,10,9,3,12,6,,0.00,7,Rain-Snow,171
2011-12-30,46,39,32,46,41,32,100,99,81,29.77,29.65,29.53,10,7,2,15,6,20,0.00,6,Rain,183
2011-12-31,44,40,37,45,39,36,100,97,81,30.03,29.89,29.60,10,8,2,14,10,21,0.00,8,Rain,252